| time (UTC) | temp C | wind direction | speed KPH | gust KPH | rain 1hr cm | rain 24hr cm | rain mn cm | humidity % | barometer mb |
| 20260510083042 | 7 | 26 | 0.0 | 0.0 | 0.00 | 1.04 | 0.03 | 88 | 1012.0 |
| 20260510081544 | 8 | 25 | 0.0 | 0.0 | 0.00 | 1.04 | 0.03 | 87 | 1011.6 |
| 20260510080037 | 8 | 25 | 0.0 | 1.6 | 0.00 | 1.04 | 0.03 | 86 | 1011.4 |
| 20260510074534 | 8 | 122 | 0.0 | 1.6 | 0.00 | 1.04 | 0.03 | 87 | 1011.3 |
| 20260510073038 | 9 | 125 | 0.0 | 4.8 | 0.00 | 1.04 | 0.03 | 88 | 1011.0 |
| 20260510071536 | 9 | 58 | 0.0 | 4.8 | 0.00 | 1.04 | 0.03 | 90 | 1010.9 |
| 20260510070028 | 10 | 8 | 1.6 | 6.4 | 0.00 | 1.04 | 0.03 | 92 | 1011.3 |
| 20260510064546 | 10 | 345 | 0.0 | 0.0 | 0.00 | 1.04 | 0.03 | 92 | 1011.0 |
| 20260510063022 | 11 | 359 | 1.6 | 6.4 | 0.00 | 1.04 | 0.03 | 92 | 1010.6 |
| 20260510061530 | 11 | 328 | 3.2 | 8.0 | 0.03 | 1.04 | 0.03 | 92 | 1010.0 |
| 20260510060028 | 11 | 319 | 1.6 | 8.0 | 0.03 | 1.04 | 0.03 | 93 | 1010.6 |
| 20260510054514 | 11 | 341 | 0.0 | 6.4 | 0.03 | 1.07 | 0.03 | 93 | 1010.0 |
| 20260510053013 | 11 | 317 | 0.0 | 3.2 | 0.03 | 1.07 | 0.03 | 93 | 1009.4 |
| 20260510051512 | 12 | 249 | 0.0 | 9.7 | 0.00 | 1.04 | 0.00 | 94 | 1009.4 |
| 20260510050010 | 11 | 243 | 1.6 | 8.0 | 0.00 | 1.04 | 0.00 | 95 | 1009.9 |
| 20260510044508 | 11 | 258 | 0.0 | 3.2 | 0.00 | 1.04 | 0.00 | 95 | 1009.2 |
| 20260510043003 | 11 | 212 | 1.6 | 9.7 | 0.00 | 1.04 | 0.00 | 94 | 1008.5 |
| 20260510041611 | 11 | 189 | 1.6 | 8.0 | 0.00 | 1.04 | 0.00 | 94 | 1008.1 |
| 20260510040059 | 11 | 179 | 0.0 | 3.2 | 0.00 | 1.04 | 0.00 | 94 | 1007.9 |
| 20260510034604 | 11 | 359 | 3.2 | 6.4 | 0.00 | 1.04 | 1.04 | 94 | 1007.8 |
| 20260510033058 | 11 | 359 | 0.0 | 8.0 | 0.00 | 1.04 | 1.04 | 94 | 1007.8 |
| 20260510031607 | 11 | 198 | 1.6 | 9.7 | 0.00 | 1.04 | 1.04 | 94 | 1007.8 |
| 20260510030103 | 11 | 199 | 3.2 | 8.0 | 0.00 | 1.04 | 1.04 | 94 | 1007.8 |
| 20260510024556 | 11 | 210 | 3.2 | 12.9 | 0.00 | 1.04 | 1.04 | 94 | 1007.9 |
| 20260510023054 | 11 | 207 | 1.6 | 9.7 | 0.00 | 1.04 | 1.04 | 94 | 1008.0 |
| 20260510021554 | 11 | 207 | 1.6 | 6.4 | 0.00 | 1.04 | 1.04 | 94 | 1007.8 |
| 20260510020053 | 11 | 211 | 3.2 | 14.5 | 0.00 | 1.04 | 1.04 | 94 | 1007.7 |
| 20260510014553 | 12 | 185 | 4.8 | 14.5 | 0.00 | 1.04 | 1.04 | 94 | 1007.6 |
| 20260510013055 | 11 | 201 | 6.4 | 16.1 | 0.00 | 1.04 | 1.04 | 94 | 1007.5 |
| 20260510011552 | 11 | 359 | 3.2 | 14.5 | 0.00 | 1.04 | 1.04 | 94 | 1007.2 |
| 20260510010052 | 11 | 186 | 4.8 | 14.5 | 0.00 | 1.04 | 1.04 | 94 | 1007.0 |
| 20260510004551 | 11 | 197 | 1.6 | 12.9 | 0.03 | 1.04 | 1.04 | 94 | 1007.0 |
| 20260510003057 | 11 | 233 | 3.2 | 14.5 | 0.15 | 1.04 | 1.04 | 93 | 1006.9 |
| 20260510001551 | 12 | 359 | 3.2 | 12.9 | 0.38 | 1.04 | 1.04 | 93 | 1006.8 |
| 20260510000052 | 11 | 272 | 1.6 | 11.3 | 0.56 | 1.04 | 1.04 | 93 | 1006.5 |
| 20260509234602 | 11 | 189 | 3.2 | 14.5 | 0.94 | 1.02 | 1.02 | 92 | 1006.7 |
| 20260509233055 | 11 | 228 | 0.0 | 8.0 | 0.84 | 0.86 | 0.86 | 91 | 1007.6 |
| 20260509231605 | 11 | 359 | 3.2 | 12.9 | 0.64 | 0.66 | 0.66 | 90 | 1007.6 |
| 20260509230050 | 12 | 359 | 8.0 | 25.7 | 0.46 | 0.48 | 0.48 | 85 | 1007.3 |
| 20260509224545 | 15 | 359 | 11.3 | 43.5 | 0.05 | 0.08 | 0.08 | 70 | 1007.6 |
| 20260509223045 | 18 | 118 | 3.2 | 11.3 | 0.00 | 0.03 | 0.03 | 59 | 1004.9 |
| 20260509221544 | 18 | 201 | 3.2 | 11.3 | 0.00 | 0.03 | 0.03 | 56 | 1004.5 |
| 20260509220043 | 19 | 255 | 1.6 | 16.1 | 0.00 | 0.03 | 0.03 | 55 | 1004.1 |
| 20260509214543 | 19 | 224 | 6.4 | 19.3 | 0.00 | 0.03 | 0.03 | 54 | 1004.0 |
| 20260509213046 | 20 | 245 | 11.3 | 35.4 | 0.00 | 0.03 | 0.03 | 52 | 1003.8 |
| 20260509211549 | 20 | 272 | 12.9 | 35.4 | 0.00 | 0.03 | 0.03 | 53 | 1004.0 |
| 20260509210052 | 20 | 237 | 8.0 | 20.9 | 0.00 | 0.03 | 0.03 | 53 | 1004.3 |
| 20260509204539 | 21 | 161 | 6.4 | 19.3 | 0.00 | 0.03 | 0.03 | 53 | 1004.2 |
| 20260509203042 | 20 | 243 | 4.8 | 19.3 | 0.00 | 0.03 | 0.03 | 56 | 1004.5 |
| 20260509201538 | 20 | 207 | 6.4 | 20.9 | 0.00 | 0.03 | 0.03 | 57 | 1004.8 |
| 20260509200034 | 20 | 218 | 4.8 | 19.3 | 0.00 | 0.03 | 0.03 | 58 | 1005.1 |
| 20260509194531 | 20 | 196 | 4.8 | 22.5 | 0.00 | 0.03 | 0.03 | 55 | 1005.3 |
| 20260509193031 | 20 | 188 | 3.2 | 25.7 | 0.00 | 0.03 | 0.03 | 57 | 1005.2 |
| 20260509191529 | 20 | 258 | 6.4 | 19.3 | 0.00 | 0.03 | 0.03 | 55 | 1005.4 |
| 20260509190031 | 20 | 181 | 6.4 | 20.9 | 0.00 | 0.03 | 0.03 | 58 | 1005.6 |
| 20260509184529 | 19 | 88 | 3.2 | 19.3 | 0.00 | 0.03 | 0.03 | 63 | 1005.9 |
| 20260509183028 | 17 | 247 | 4.8 | 14.5 | 0.00 | 0.03 | 0.03 | 71 | 1006.1 |
| 20260509181519 | 17 | 238 | 0.0 | 4.8 | 0.00 | 0.03 | 0.03 | 73 | 1006.3 |
| 20260509180018 | 16 | 359 | 0.0 | 8.0 | 0.00 | 0.03 | 0.03 | 77 | 1006.3 |
| 20260509174517 | 16 | 359 | 3.2 | 16.1 | 0.00 | 0.03 | 0.03 | 74 | 1006.7 |
| 20260509173017 | 18 | 198 | 6.4 | 17.7 | 0.00 | 0.03 | 0.03 | 65 | 1006.8 |
| 20260509171520 | 18 | 228 | 4.8 | 16.1 | 0.00 | 0.03 | 0.03 | 69 | 1006.5 |
| 20260509170006 | 17 | 193 | 1.6 | 19.3 | 0.00 | 0.03 | 0.03 | 72 | 1006.9 |
| 20260509164503 | 16 | 192 | 4.8 | 12.9 | 0.00 | 0.03 | 0.03 | 74 | 1007.2 |
| 20260509163001 | 17 | 243 | 3.2 | 11.3 | 0.00 | 0.03 | 0.03 | 74 | 1007.4 |
| 20260509161559 | 17 | 214 | 3.2 | 11.3 | 0.00 | 0.03 | 0.03 | 75 | 1007.5 |
| 20260509160056 | 16 | 219 | 0.0 | 9.7 | 0.00 | 0.03 | 0.03 | 77 | 1007.6 |
| 20260509154606 | 16 | 227 | 1.6 | 14.5 | 0.00 | 0.03 | 0.03 | 78 | 1007.7 |
| 20260509153050 | 15 | 242 | 3.2 | 22.5 | 0.00 | 0.03 | 0.03 | 81 | 1007.7 |
| 20260509151550 | 15 | 214 | 6.4 | 17.7 | 0.00 | 0.03 | 0.03 | 80 | 1007.8 |
| 20260509150103 | 15 | 198 | 4.8 | 17.7 | 0.00 | 0.03 | 0.03 | 79 | 1007.8 |
| 20260509144547 | 14 | 239 | 6.4 | 12.9 | 0.00 | 0.03 | 0.03 | 85 | 1007.8 |
| 20260509143047 | 13 | 227 | 1.6 | 16.1 | 0.00 | 0.03 | 0.03 | 83 | 1008.0 |
| 20260509141539 | 13 | 212 | 3.2 | 9.7 | 0.00 | 0.03 | 0.03 | 85 | 1007.9 |
| 20260509140038 | 13 | 219 | 3.2 | 11.3 | 0.00 | 0.03 | 0.03 | 86 | 1007.9 |
| 20260509134534 | 13 | 181 | 4.8 | 9.7 | 0.00 | 0.05 | 0.03 | 86 | 1008.0 |
| 20260509133031 | 13 | 193 | 1.6 | 12.9 | 0.00 | 0.05 | 0.03 | 88 | 1007.9 |
| 20260509131529 | 12 | 253 | 3.2 | 9.7 | 0.00 | 0.05 | 0.03 | 89 | 1008.1 |
| 20260509130025 | 12 | 214 | 4.8 | 11.3 | 0.00 | 0.05 | 0.03 | 89 | 1008.1 |
| 20260509124532 | 12 | 243 | 1.6 | 8.0 | 0.00 | 0.15 | 0.03 | 91 | 1008.3 |
| 20260509123020 | 12 | 177 | 3.2 | 11.3 | 0.00 | 0.15 | 0.03 | 91 | 1008.4 |
| 20260509121526 | 11 | 359 | 3.2 | 9.7 | 0.00 | 0.15 | 0.03 | 91 | 1008.6 |
| 20260509120017 | 11 | 359 | 4.8 | 9.7 | 0.00 | 0.15 | 0.03 | 92 | 1008.7 |
| 20260509114533 | 11 | 359 | 0.0 | 9.7 | 0.00 | 0.25 | 0.03 | 92 | 1008.6 |
| 20260509113013 | 11 | 359 | 1.6 | 8.0 | 0.00 | 0.25 | 0.03 | 92 | 1008.6 |
| 20260509111509 | 11 | 359 | 1.6 | 9.7 | 0.00 | 0.25 | 0.03 | 92 | 1008.5 |
| 20260509110006 | 10 | 359 | 1.6 | 9.7 | 0.00 | 0.25 | 0.03 | 92 | 1008.5 |
| 20260509104504 | 10 | 359 | 3.2 | 8.0 | 0.00 | 0.25 | 0.03 | 92 | 1008.5 |
| 20260509103002 | 10 | 359 | 3.2 | 12.9 | 0.00 | 0.25 | 0.03 | 92 | 1008.5 |
| 20260509101600 | 10 | 359 | 0.0 | 6.4 | 0.00 | 0.25 | 0.03 | 92 | 1008.6 |
| 20260509100059 | 10 | 359 | 0.0 | 6.4 | 0.00 | 0.25 | 0.03 | 91 | 1008.6 |
| 20260509094601 | 10 | 359 | 4.8 | 9.7 | 0.00 | 0.25 | 0.03 | 91 | 1008.7 |
| 20260509093056 | 11 | 359 | 1.6 | 8.0 | 0.00 | 0.25 | 0.03 | 91 | 1008.8 |
| 20260509091559 | 11 | 359 | 1.6 | 6.4 | 0.00 | 0.25 | 0.03 | 91 | 1008.8 |
| 20260509090106 | 11 | 359 | 1.6 | 14.5 | 0.00 | 0.25 | 0.03 | 91 | 1008.9 |
| 20260509084553 | 11 | 359 | 1.6 | 4.8 | 0.00 | 0.25 | 0.03 | 91 | 1009.0 |